Time;durP1;ratioP1;P1;durP2;ratioP2;P2;SDS_P1;SDS_P2;PMS_P1;PMS_P2;Temp;Humidity;BMP_temperature;BMP_pressure;BME280_temperature;BME280_humidity;BME280_pressure;Samples;Min_cycle;Max_cycle;Signal;HPM_P1;HPM_P2
2022/12/09 00:00:25;;;;;;;;;;;7.20;60.80;;;;;;5047623;28;19917;-89
2022/12/09 00:02:51;;;;;;;;;;;7.20;60.90;;;;;;5033556;28;20360;-89
2022/12/09 00:05:16;;;;;;;;;;;7.30;61.00;;;;;;5032072;28;19914;-87
2022/12/09 00:07:42;;;;;;;;;;;7.40;61.10;;;;;;5031012;28;20091;-89
2022/12/09 00:10:07;;;;;;;;;;;7.50;61.10;;;;;;5031220;28;19913;-89
2022/12/09 00:12:33;;;;;;;;;;;7.50;61.10;;;;;;5031959;28;19948;-88
2022/12/09 00:14:58;;;;;;;;;;;7.50;61.10;;;;;;5032428;28;19943;-87
2022/12/09 00:17:26;;;;;;;;;;;7.60;61.10;;;;;;5031705;28;20352;-87
2022/12/09 00:19:52;;;;;;;;;;;7.60;61.10;;;;;;5030021;28;19955;-88
2022/12/09 00:22:17;;;;;;;;;;;7.60;61.10;;;;;;5030031;28;19968;-86
2022/12/09 00:24:43;;;;;;;;;;;7.70;61.20;;;;;;5031541;28;20341;-87
2022/12/09 00:27:08;;;;;;;;;;;7.70;61.20;;;;;;5031414;28;20009;-87
2022/12/09 00:29:34;;;;;;;;;;;7.70;61.00;;;;;;5032394;28;19959;-88
2022/12/09 00:31:59;;;;;;;;;;;7.70;61.00;;;;;;5032532;28;19920;-87
2022/12/09 00:34:28;;;;;;;;;;;7.70;61.10;;;;;;5034542;28;19917;-87
2022/12/09 00:36:53;;;;;;;;;;;7.70;61.10;;;;;;5031309;28;20387;-87
2022/12/09 00:39:18;;;;;;;;;;;7.70;61.00;;;;;;5028474;28;19909;-87
2022/12/09 00:41:44;;;;;;;;;;;7.70;61.10;;;;;;5010244;28;20352;-86
2022/12/09 00:44:10;;;;;;;;;;;7.80;61.10;;;;;;5012738;28;20375;-88
2022/12/09 00:46:36;;;;;;;;;;;7.80;61.10;;;;;;5011846;28;19928;-88
2022/12/09 00:49:02;;;;;;;;;;;7.80;61.10;;;;;;5012749;28;19913;-88
2022/12/09 00:51:27;;;;;;;;;;;7.90;61.10;;;;;;5018037;28;20299;-87
2022/12/09 00:53:54;;;;;;;;;;;7.90;61.10;;;;;;5031348;28;20288;-88
2022/12/09 00:56:21;;;;;;;;;;;7.90;61.10;;;;;;5031578;28;19927;-89
2022/12/09 00:58:47;;;;;;;;;;;7.90;61.00;;;;;;5029966;28;19959;-89
2022/12/09 01:01:13;;;;;;;;;;;8.00;61.10;;;;;;5031544;28;20128;-89
2022/12/09 01:03:38;;;;;;;;;;;8.00;61.10;;;;;;5029191;28;20004;-86
2022/12/09 01:06:11;;;;;;;;;;;8.10;61.10;;;;;;5018168;28;20024;-87
2022/12/09 01:08:36;;;;;;;;;;;8.10;61.10;;;;;;5018269;28;19935;-88
2022/12/09 01:11:07;;;;;;;;;;;8.20;61.20;;;;;;5029085;28;20257;-87
2022/12/09 01:13:32;;;;;;;;;;;8.20;61.20;;;;;;5015941;28;19925;-87
2022/12/09 01:15:57;;;;;;;;;;;8.20;61.10;;;;;;5018965;28;19917;-88
2022/12/09 01:18:23;;;;;;;;;;;8.30;60.90;;;;;;5030650;28;19928;-87
2022/12/09 01:20:55;;;;;;;;;;;8.30;61.00;;;;;;5030427;28;19924;-87
2022/12/09 01:23:21;;;;;;;;;;;8.30;61.00;;;;;;5016004;28;19953;-86
2022/12/09 01:25:46;;;;;;;;;;;8.30;61.00;;;;;;5019918;28;19924;-87
2022/12/09 01:28:12;;;;;;;;;;;8.30;61.00;;;;;;5028483;28;19924;-89
2022/12/09 01:30:37;;;;;;;;;;;8.30;60.90;;;;;;5029890;28;20004;-88
2022/12/09 01:33:02;;;;;;;;;;;8.30;60.90;;;;;;5029975;28;20552;-87
2022/12/09 01:35:28;;;;;;;;;;;8.30;60.90;;;;;;5031693;28;19992;-87
2022/12/09 01:37:53;;;;;;;;;;;8.40;60.90;;;;;;5028864;28;19944;-89
2022/12/09 01:40:19;;;;;;;;;;;8.40;60.90;;;;;;5029577;28;19917;-87
2022/12/09 01:42:44;;;;;;;;;;;8.30;60.80;;;;;;5032232;28;19920;-87
2022/12/09 01:45:20;;;;;;;;;;;8.30;60.70;;;;;;5027803;28;20026;-89
2022/12/09 01:48:06;;;;;;;;;;;8.30;60.70;;;;;;5030008;28;19917;-88
2022/12/09 01:50:32;;;;;;;;;;;8.30;60.70;;;;;;5022654;28;20334;-88
2022/12/09 01:52:58;;;;;;;;;;;8.30;60.70;;;;;;5031322;28;19913;-89
2022/12/09 01:55:23;;;;;;;;;;;8.30;60.80;;;;;;5035645;28;19928;-87
2022/12/09 01:57:49;;;;;;;;;;;8.30;60.80;;;;;;5029660;28;19978;-89
2022/12/09 02:00:15;;;;;;;;;;;8.30;60.70;;;;;;5030353;28;20287;-87
2022/12/09 02:02:42;;;;;;;;;;;8.30;60.80;;;;;;5029971;28;19919;-88
2022/12/09 02:05:07;;;;;;;;;;;8.30;60.80;;;;;;5029943;28;19917;-88
2022/12/09 02:07:33;;;;;;;;;;;8.30;60.90;;;;;;5029852;28;19924;-86
2022/12/09 02:09:59;;;;;;;;;;;8.30;60.90;;;;;;5031328;28;19925;-87
2022/12/09 02:12:24;;;;;;;;;;;8.40;61.00;;;;;;5029312;28;19917;-89
2022/12/09 02:15:01;;;;;;;;;;;8.40;61.00;;;;;;5030575;28;19975;-88
2022/12/09 02:17:33;;;;;;;;;;;8.40;60.90;;;;;;5027927;28;20015;-88
2022/12/09 02:20:05;;;;;;;;;;;8.50;60.90;;;;;;5028604;28;20165;-88
2022/12/09 02:22:37;;;;;;;;;;;8.50;60.90;;;;;;5031828;28;19913;-87
2022/12/09 02:25:11;;;;;;;;;;;8.50;60.80;;;;;;5028495;28;19925;-89
2022/12/09 02:27:42;;;;;;;;;;;8.50;60.70;;;;;;5022179;28;19940;-89
2022/12/09 02:30:22;;;;;;;;;;;8.40;60.70;;;;;;5012442;28;20316;-87
2022/12/09 02:33:01;;;;;;;;;;;8.40;60.70;;;;;;5016593;28;19923;-89
2022/12/09 02:35:30;;;;;;;;;;;8.40;60.70;;;;;;5010274;28;20032;-88
2022/12/09 02:38:10;;;;;;;;;;;8.40;60.70;;;;;;5025750;28;19972;-86
2022/12/09 02:40:42;;;;;;;;;;;8.40;60.80;;;;;;5011729;28;20293;-87
2022/12/09 02:43:09;;;;;;;;;;;8.30;60.80;;;;;;5025285;28;19960;-87
2022/12/09 02:45:35;;;;;;;;;;;8.30;60.80;;;;;;5028626;28;19921;-87
2022/12/09 02:48:01;;;;;;;;;;;8.30;60.80;;;;;;5028116;28;19913;-87
2022/12/09 02:50:29;;;;;;;;;;;8.40;60.90;;;;;;5029684;28;19971;-88
2022/12/09 02:52:55;;;;;;;;;;;8.40;61.00;;;;;;5024081;28;19914;-88
2022/12/09 02:55:21;;;;;;;;;;;8.30;61.00;;;;;;5032707;28;19933;-88
2022/12/09 02:57:49;;;;;;;;;;;8.40;61.10;;;;;;5032927;28;19917;-86
2022/12/09 03:00:15;;;;;;;;;;;8.40;61.10;;;;;;5019358;28;19927;-86
2022/12/09 03:02:42;;;;;;;;;;;8.40;61.10;;;;;;5021491;28;19988;-88
2022/12/09 03:05:26;;;;;;;;;;;8.40;61.10;;;;;;5020219;28;19928;-87
2022/12/09 03:08:11;;;;;;;;;;;8.40;61.10;;;;;;5027668;28;19960;-88
2022/12/09 03:11:15;;;;;;;;;;;8.50;61.10;;;;;;5028381;28;19963;-88
2022/12/09 03:13:40;;;;;;;;;;;8.50;61.20;;;;;;4923661;29;19987;-88
2022/12/09 03:16:10;;;;;;;;;;;8.50;61.30;;;;;;4935978;29;20013;-86
2022/12/09 03:18:36;;;;;;;;;;;8.60;61.30;;;;;;4988438;28;20283;-87
2022/12/09 03:21:02;;;;;;;;;;;8.60;61.10;;;;;;5031155;28;19917;-87
2022/12/09 03:23:29;;;;;;;;;;;8.60;61.10;;;;;;5032050;28;19917;-88
2022/12/09 03:25:55;;;;;;;;;;;8.60;61.10;;;;;;5032159;28;20272;-88
2022/12/09 03:28:27;;;;;;;;;;;8.60;61.00;;;;;;5030595;28;19916;-89
2022/12/09 03:30:53;;;;;;;;;;;8.60;61.20;;;;;;5024561;28;19917;-87
2022/12/09 03:33:20;;;;;;;;;;;8.60;61.20;;;;;;5030464;28;19917;-86
2022/12/09 03:35:51;;;;;;;;;;;8.60;61.20;;;;;;5030118;28;20037;-87
2022/12/09 03:38:18;;;;;;;;;;;8.60;61.20;;;;;;5031149;28;20003;-88
2022/12/09 03:40:45;;;;;;;;;;;8.60;61.40;;;;;;5032287;28;19947;-88
2022/12/09 03:43:26;;;;;;;;;;;8.60;61.30;;;;;;5029514;28;20382;-88
2022/12/09 03:45:55;;;;;;;;;;;8.60;61.20;;;;;;5031420;28;19917;-88
2022/12/09 03:48:21;;;;;;;;;;;8.60;61.20;;;;;;5029855;28;19913;-87
2022/12/09 03:50:51;;;;;;;;;;;8.60;61.20;;;;;;5030705;28;19917;-89
2022/12/09 03:53:31;;;;;;;;;;;8.60;61.20;;;;;;5031680;28;20382;-88
2022/12/09 03:56:00;;;;;;;;;;;8.60;61.20;;;;;;5036207;28;19932;-88
2022/12/09 03:58:27;;;;;;;;;;;8.60;61.20;;;;;;5028234;28;20392;-88
2022/12/09 04:00:52;;;;;;;;;;;8.60;61.30;;;;;;5033047;28;19952;-88
2022/12/09 04:03:18;;;;;;;;;;;8.60;61.40;;;;;;5031138;28;19952;-88
2022/12/09 04:05:44;;;;;;;;;;;8.70;61.40;;;;;;5029903;28;19917;-89
2022/12/09 04:08:09;;;;;;;;;;;8.60;61.20;;;;;;5031631;28;19917;-89
2022/12/09 04:10:35;;;;;;;;;;;8.60;61.10;;;;;;5029591;28;20379;-88
2022/12/09 04:13:00;;;;;;;;;;;8.50;61.20;;;;;;5031918;28;19926;-89
2022/12/09 04:15:26;;;;;;;;;;;8.50;61.20;;;;;;5030892;28;19932;-88
2022/12/09 04:17:51;;;;;;;;;;;8.50;61.20;;;;;;5029653;28;19992;-88
2022/12/09 04:20:17;;;;;;;;;;;8.50;61.30;;;;;;5029504;28;20315;-88
2022/12/09 04:22:42;;;;;;;;;;;8.50;61.40;;;;;;5032998;28;19921;-88
2022/12/09 04:25:08;;;;;;;;;;;8.50;61.30;;;;;;5030922;28;19918;-87
2022/12/09 04:27:33;;;;;;;;;;;8.50;61.40;;;;;;5032111;28;20442;-88
2022/12/09 04:29:59;;;;;;;;;;;8.40;61.10;;;;;;5030567;28;20027;-89
2022/12/09 04:32:24;;;;;;;;;;;8.40;61.00;;;;;;5031335;28;19913;-88
2022/12/09 04:34:50;;;;;;;;;;;8.40;61.00;;;;;;5029204;28;19925;-87
2022/12/09 04:37:15;;;;;;;;;;;8.40;60.90;;;;;;5030561;28;19913;-87
2022/12/09 04:39:41;;;;;;;;;;;8.30;60.70;;;;;;5030702;28;20272;-88
2022/12/09 04:42:06;;;;;;;;;;;8.30;60.60;;;;;;5030977;28;20023;-89
2022/12/09 04:44:32;;;;;;;;;;;8.20;60.50;;;;;;5029923;28;20434;-86
2022/12/09 04:46:57;;;;;;;;;;;8.20;60.50;;;;;;5029720;28;20300;-88
2022/12/09 04:49:23;;;;;;;;;;;8.10;60.30;;;;;;5028378;28;20020;-87
2022/12/09 04:51:48;;;;;;;;;;;8.00;60.30;;;;;;5030551;28;19917;-88
2022/12/09 04:54:14;;;;;;;;;;;8.00;60.10;;;;;;5029904;28;19921;-89
2022/12/09 04:56:40;;;;;;;;;;;7.90;60.10;;;;;;5033918;28;19917;-86
2022/12/09 04:59:05;;;;;;;;;;;7.90;60.10;;;;;;5029746;28;20412;-87
2022/12/09 05:01:31;;;;;;;;;;;7.80;60.10;;;;;;5029037;28;20326;-86
2022/12/09 05:03:57;;;;;;;;;;;7.70;60.30;;;;;;5030360;28;19913;-89
2022/12/09 05:06:23;;;;;;;;;;;7.70;60.50;;;;;;5029981;28;19921;-89
2022/12/09 05:08:48;;;;;;;;;;;7.70;60.80;;;;;;5028839;28;19952;-87
2022/12/09 05:11:14;;;;;;;;;;;7.70;61.10;;;;;;5029545;28;19972;-87
2022/12/09 05:13:39;;;;;;;;;;;7.80;61.20;;;;;;5028336;28;19940;-89
2022/12/09 05:16:06;;;;;;;;;;;7.90;61.30;;;;;;5028974;28;19917;-89
2022/12/09 05:18:32;;;;;;;;;;;8.00;61.30;;;;;;5028618;28;19917;-88
2022/12/09 05:20:57;;;;;;;;;;;8.10;61.40;;;;;;5030252;28;19940;-89
2022/12/09 05:23:23;;;;;;;;;;;8.20;61.30;;;;;;5029434;28;19924;-87
2022/12/09 05:25:49;;;;;;;;;;;8.20;61.10;;;;;;5027915;28;20334;-88
2022/12/09 05:28:14;;;;;;;;;;;8.20;61.10;;;;;;5027866;28;20295;-88
2022/12/09 05:30:39;;;;;;;;;;;8.30;61.10;;;;;;5028600;28;20020;-88
2022/12/09 05:33:05;;;;;;;;;;;8.30;61.30;;;;;;5031532;28;19967;-88
2022/12/09 05:35:30;;;;;;;;;;;8.30;61.20;;;;;;5016525;28;19964;-87
2022/12/09 05:37:58;;;;;;;;;;;8.40;61.10;;;;;;5016691;28;21235;-88
2022/12/09 05:40:23;;;;;;;;;;;8.40;61.20;;;;;;5029165;28;20442;-87
2022/12/09 05:42:49;;;;;;;;;;;8.40;61.10;;;;;;5029261;28;20334;-88
2022/12/09 05:45:14;;;;;;;;;;;8.40;61.10;;;;;;5028753;28;19913;-87
2022/12/09 05:47:40;;;;;;;;;;;8.40;61.10;;;;;;5029880;28;19917;-90
2022/12/09 05:50:06;;;;;;;;;;;8.50;61.10;;;;;;5028063;28;19967;-89
2022/12/09 05:52:33;;;;;;;;;;;8.40;60.90;;;;;;5028429;28;20269;-89
2022/12/09 05:54:59;;;;;;;;;;;8.40;60.90;;;;;;5033096;28;20067;-89
2022/12/09 05:57:24;;;;;;;;;;;8.40;61.00;;;;;;5028069;28;20376;-87
2022/12/09 05:59:50;;;;;;;;;;;8.30;60.90;;;;;;5031077;28;19923;-89
2022/12/09 06:02:15;;;;;;;;;;;8.30;60.80;;;;;;5029107;28;19924;-89
2022/12/09 06:04:41;;;;;;;;;;;8.20;60.70;;;;;;5028121;28;20325;-87
2022/12/09 06:07:06;;;;;;;;;;;8.20;60.70;;;;;;5028911;28;19917;-88
2022/12/09 06:09:32;;;;;;;;;;;8.00;60.60;;;;;;5029256;28;19944;-89
2022/12/09 06:11:58;;;;;;;;;;;7.90;60.70;;;;;;5029718;28;19917;-87
2022/12/09 06:14:23;;;;;;;;;;;7.90;60.90;;;;;;5028450;28;19933;-87
2022/12/09 06:16:49;;;;;;;;;;;7.80;61.00;;;;;;5029386;28;19920;-88
2022/12/09 06:19:14;;;;;;;;;;;7.90;61.20;;;;;;5027832;28;19925;-87
2022/12/09 06:21:40;;;;;;;;;;;7.90;61.20;;;;;;5029450;28;19913;-88
2022/12/09 06:24:06;;;;;;;;;;;8.00;61.20;;;;;;5028633;28;19959;-89
2022/12/09 06:26:31;;;;;;;;;;;7.90;61.20;;;;;;5029500;28;19921;-88
2022/12/09 06:28:58;;;;;;;;;;;8.00;61.00;;;;;;5032118;28;19917;-90
2022/12/09 06:31:23;;;;;;;;;;;7.90;61.10;;;;;;5031460;28;20212;-87
2022/12/09 06:33:49;;;;;;;;;;;7.90;61.00;;;;;;5031401;28;19959;-88
2022/12/09 06:36:14;;;;;;;;;;;7.90;60.80;;;;;;5029360;28;19949;-88
2022/12/09 06:38:40;;;;;;;;;;;7.80;60.90;;;;;;5032833;28;19917;-89
2022/12/09 06:41:06;;;;;;;;;;;7.80;60.80;;;;;;5030419;28;19917;-87
2022/12/09 06:43:32;;;;;;;;;;;7.80;60.50;;;;;;5029630;28;19917;-88
2022/12/09 06:45:57;;;;;;;;;;;7.70;60.30;;;;;;5029050;28;19917;-90
2022/12/09 06:48:23;;;;;;;;;;;7.60;60.00;;;;;;5027614;28;19925;-89
2022/12/09 06:50:49;;;;;;;;;;;7.50;59.80;;;;;;5030326;28;20011;-87
2022/12/09 06:53:14;;;;;;;;;;;7.30;59.60;;;;;;5027078;28;19929;-86
2022/12/09 06:55:40;;;;;;;;;;;7.20;59.40;;;;;;5029432;28;19936;-86
2022/12/09 06:58:06;;;;;;;;;;;7.10;59.10;;;;;;5030027;28;19921;-87
2022/12/09 07:00:32;;;;;;;;;;;7.00;58.80;;;;;;5030346;28;20360;-87
2022/12/09 07:02:57;;;;;;;;;;;6.80;58.40;;;;;;5027280;28;19921;-87
2022/12/09 07:05:23;;;;;;;;;;;6.70;58.00;;;;;;5027971;28;20015;-86
2022/12/09 07:07:52;;;;;;;;;;;6.50;58.10;;;;;;5027555;28;19921;-87
2022/12/09 07:10:18;;;;;;;;;;;6.40;58.00;;;;;;5028696;28;19928;-86
2022/12/09 07:12:43;;;;;;;;;;;6.30;57.80;;;;;;5029001;28;19944;-88
2022/12/09 07:15:09;;;;;;;;;;;6.20;57.70;;;;;;5026471;28;19925;-88
2022/12/09 07:17:34;;;;;;;;;;;6.10;57.50;;;;;;5029108;28;19928;-88
2022/12/09 07:20:00;;;;;;;;;;;6.10;57.90;;;;;;5025437;28;19917;-89
2022/12/09 07:22:25;;;;;;;;;;;6.00;58.10;;;;;;5027260;28;19928;-88
2022/12/09 07:24:51;;;;;;;;;;;6.00;58.70;;;;;;5028477;28;19914;-88
2022/12/09 07:27:16;;;;;;;;;;;5.90;59.50;;;;;;5030487;28;19924;-88
2022/12/09 07:29:42;;;;;;;;;;;6.00;60.20;;;;;;5028810;28;19917;-87
2022/12/09 07:32:08;;;;;;;;;;;6.00;60.50;;;;;;5030963;28;19921;-89
2022/12/09 07:34:34;;;;;;;;;;;6.10;60.90;;;;;;5028598;28;20039;-88
2022/12/09 07:36:59;;;;;;;;;;;6.20;61.20;;;;;;5030152;28;20099;-89
2022/12/09 07:39:25;;;;;;;;;;;6.20;61.40;;;;;;5030088;28;20362;-88
2022/12/09 07:41:55;;;;;;;;;;;6.30;61.50;;;;;;5025723;28;19916;-88
2022/12/09 07:44:21;;;;;;;;;;;6.50;61.60;;;;;;5029394;28;19925;-87
2022/12/09 07:46:46;;;;;;;;;;;6.50;61.50;;;;;;5026774;28;19917;-88
2022/12/09 07:49:12;;;;;;;;;;;6.60;61.40;;;;;;5027816;28;19928;-90
2022/12/09 07:51:38;;;;;;;;;;;6.70;61.20;;;;;;5027698;28;19924;-89
2022/12/09 07:54:03;;;;;;;;;;;6.60;60.70;;;;;;5028828;28;19929;-87
2022/12/09 07:56:29;;;;;;;;;;;6.60;60.10;;;;;;5027434;28;20371;-88
2022/12/09 07:58:55;;;;;;;;;;;6.50;59.60;;;;;;5023738;28;19921;-90
2022/12/09 08:01:22;;;;;;;;;;;6.40;59.50;;;;;;5026855;28;19932;-90
2022/12/09 08:03:48;;;;;;;;;;;6.40;60.00;;;;;;5028120;28;20020;-88
2022/12/09 08:06:16;;;;;;;;;;;6.40;60.30;;;;;;5030541;28;20308;-89
2022/12/09 08:08:42;;;;;;;;;;;6.50;60.70;;;;;;5028685;28;19952;-89
2022/12/09 08:11:08;;;;;;;;;;;6.60;60.90;;;;;;5027689;28;20380;-89
2022/12/09 08:13:34;;;;;;;;;;;6.70;61.00;;;;;;5028851;28;19951;-89
2022/12/09 08:16:04;;;;;;;;;;;6.80;61.10;;;;;;5029558;28;19929;-89
2022/12/09 08:18:29;;;;;;;;;;;6.90;61.20;;;;;;5025692;28;20623;-89
2022/12/09 08:20:55;;;;;;;;;;;7.00;61.30;;;;;;5025047;28;20620;-89
2022/12/09 08:23:20;;;;;;;;;;;7.20;61.30;;;;;;5025244;28;19921;-88
2022/12/09 08:25:51;;;;;;;;;;;7.30;61.10;;;;;;5027739;28;19998;-87
2022/12/09 08:28:16;;;;;;;;;;;7.40;61.00;;;;;;5027309;28;20299;-88
2022/12/09 08:30:42;;;;;;;;;;;7.40;60.90;;;;;;5029332;28;20363;-88
2022/12/09 08:33:08;;;;;;;;;;;7.50;60.80;;;;;;5027066;28;19948;-87
2022/12/09 08:35:33;;;;;;;;;;;7.60;60.70;;;;;;5027626;28;20333;-86
2022/12/09 08:37:59;;;;;;;;;;;7.60;60.60;;;;;;5026590;28;20356;-89
2022/12/09 08:40:24;;;;;;;;;;;7.70;60.60;;;;;;5027651;28;19963;-88
2022/12/09 08:42:50;;;;;;;;;;;7.70;60.60;;;;;;5025621;28;20347;-89
2022/12/09 08:45:15;;;;;;;;;;;7.80;60.70;;;;;;5029443;28;19917;-88
2022/12/09 08:47:41;;;;;;;;;;;7.80;60.60;;;;;;5028104;28;19921;-88
2022/12/09 08:50:07;;;;;;;;;;;7.90;60.60;;;;;;5025943;28;19963;-88
2022/12/09 08:52:32;;;;;;;;;;;7.80;60.60;;;;;;5027679;28;20237;-88
2022/12/09 08:54:58;;;;;;;;;;;8.00;60.80;;;;;;5026431;28;19932;-88
2022/12/09 08:57:23;;;;;;;;;;;8.00;60.90;;;;;;5027032;28;19960;-89
2022/12/09 08:59:49;;;;;;;;;;;8.00;60.90;;;;;;5031502;28;19952;-89
2022/12/09 09:02:14;;;;;;;;;;;8.10;60.90;;;;;;5026579;28;19983;-87
2022/12/09 09:04:40;;;;;;;;;;;8.20;61.00;;;;;;5032164;28;19951;-86
2022/12/09 09:07:05;;;;;;;;;;;8.30;61.00;;;;;;5026411;28;19957;-88
2022/12/09 09:09:31;;;;;;;;;;;8.30;61.00;;;;;;5041701;28;19924;-89
2022/12/09 09:11:56;;;;;;;;;;;8.40;61.10;;;;;;5026528;28;20074;-88
2022/12/09 09:14:22;;;;;;;;;;;8.50;61.00;;;;;;5026842;28;19921;-87
2022/12/09 09:16:47;;;;;;;;;;;8.60;61.00;;;;;;5026648;28;19917;-86
2022/12/09 09:19:14;;;;;;;;;;;8.60;61.10;;;;;;5025368;28;20380;-87
2022/12/09 09:21:40;;;;;;;;;;;8.70;61.20;;;;;;5027052;28;19921;-90
2022/12/09 09:24:10;;;;;;;;;;;8.80;61.20;;;;;;5025296;28;19967;-89
2022/12/09 09:26:38;;;;;;;;;;;8.90;61.20;;;;;;5025954;28;19917;-88
2022/12/09 09:29:03;;;;;;;;;;;8.90;61.20;;;;;;5025958;28;19921;-89
2022/12/09 09:31:29;;;;;;;;;;;9.00;61.10;;;;;;5025219;28;19917;-89
2022/12/09 09:33:54;;;;;;;;;;;9.00;61.00;;;;;;5024341;28;19921;-88
2022/12/09 09:36:22;;;;;;;;;;;9.10;60.90;;;;;;5018019;28;19928;-86
2022/12/09 09:38:48;;;;;;;;;;;9.10;61.10;;;;;;5024086;28;20264;-89
2022/12/09 09:41:17;;;;;;;;;;;9.10;60.90;;;;;;5024828;28;20040;-88
2022/12/09 09:43:42;;;;;;;;;;;9.10;60.90;;;;;;5025085;28;19922;-89
2022/12/09 09:46:11;;;;;;;;;;;9.20;61.10;;;;;;5025440;28;20758;-86
2022/12/09 09:48:36;;;;;;;;;;;9.20;61.00;;;;;;5026767;28;19921;-90
2022/12/09 09:51:09;;;;;;;;;;;9.20;60.80;;;;;;5025901;28;19917;-89
2022/12/09 09:53:35;;;;;;;;;;;9.20;60.60;;;;;;5026027;28;19972;-89
2022/12/09 09:56:09;;;;;;;;;;;9.10;60.60;;;;;;5023199;28;20414;-90
2022/12/09 09:58:34;;;;;;;;;;;9.10;60.50;;;;;;5026328;28;19940;-89
2022/12/09 10:01:08;;;;;;;;;;;9.00;60.70;;;;;;5026082;28;19920;-89
2022/12/09 10:03:51;;;;;;;;;;;9.10;60.80;;;;;;5024078;28;19921;-87
2022/12/09 10:06:24;;;;;;;;;;;9.10;60.50;;;;;;5029417;28;19928;-91
2022/12/09 10:08:57;;;;;;;;;;;9.00;60.50;;;;;;5029807;28;19923;-86
2022/12/09 10:11:58;;;;;;;;;;;9.00;60.80;;;;;;5028476;28;20016;-87
2022/12/09 10:14:23;;;;;;;;;;;9.10;60.80;;;;;;4951495;28;19985;-90
2022/12/09 10:17:03;;;;;;;;;;;9.10;60.80;;;;;;5017623;28;20324;-88
2022/12/09 10:19:34;;;;;;;;;;;9.10;60.90;;;;;;5029128;28;19928;-89
2022/12/09 10:22:10;;;;;;;;;;;9.10;61.00;;;;;;5022682;28;20379;-90
2022/12/09 10:24:37;;;;;;;;;;;9.20;61.10;;;;;;5030716;28;20503;-89
2022/12/09 10:27:03;;;;;;;;;;;9.20;60.90;;;;;;5028086;28;19917;-90
2022/12/09 10:29:49;;;;;;;;;;;9.30;60.90;;;;;;5027426;28;20391;-88
2022/12/09 10:32:16;;;;;;;;;;;9.30;61.00;;;;;;4997625;28;19928;-88
2022/12/09 10:34:42;;;;;;;;;;;9.40;61.10;;;;;;5028523;28;20311;-90
2022/12/09 10:37:26;;;;;;;;;;;9.40;60.80;;;;;;5030297;28;19917;-88
2022/12/09 10:40:03;;;;;;;;;;;9.40;61.10;;;;;;5029810;28;19948;-86
2022/12/09 10:45:14;;;;;;;;;;;9.50;60.80;;;;;;5027942;28;19932;-88
2022/12/09 10:47:47;;;;;;;;;;;9.60;61.10;;;;;;5029622;28;19917;-88
2022/12/09 10:50:24;;;;;;;;;;;9.60;60.90;;;;;;5028677;28;19921;-89
2022/12/09 10:52:50;;;;;;;;;;;9.70;61.00;;;;;;5025626;28;19917;-91
2022/12/09 10:55:36;;;;;;;;;;;9.80;61.30;;;;;;5028867;28;19995;-90
2022/12/09 10:58:22;;;;;;;;;;;9.80;61.20;;;;;;5026879;28;20655;-86
2022/12/09 11:01:02;;;;;;;;;;;9.90;61.00;;;;;;5023579;28;19925;-87
2022/12/09 11:03:29;;;;;;;;;;;9.90;61.20;;;;;;5026082;28;19940;-88
2022/12/09 11:05:59;;;;;;;;;;;10.00;61.50;;;;;;5029043;28;19927;-88
2022/12/09 11:08:25;;;;;;;;;;;10.10;61.70;;;;;;5026911;28;19969;-90
2022/12/09 11:10:51;;;;;;;;;;;10.20;61.80;;;;;;5022586;28;19921;-87
2022/12/09 11:13:18;;;;;;;;;;;10.30;61.80;;;;;;5031332;28;20382;-90
2022/12/09 11:15:48;;;;;;;;;;;10.40;61.80;;;;;;5029596;28;19925;-89
2022/12/09 11:18:18;;;;;;;;;;;10.50;61.90;;;;;;5028338;28;19917;-88
2022/12/09 11:20:53;;;;;;;;;;;10.50;61.70;;;;;;5029141;28;20331;-90
2022/12/09 11:23:19;;;;;;;;;;;10.60;61.60;;;;;;5027398;28;20351;-91
2022/12/09 11:25:53;;;;;;;;;;;10.60;61.20;;;;;;5029670;28;20007;-87
2022/12/09 11:28:26;;;;;;;;;;;10.50;61.00;;;;;;5021488;28;19963;-89
2022/12/09 11:30:58;;;;;;;;;;;10.50;60.90;;;;;;5024187;28;19921;-88
2022/12/09 11:33:28;;;;;;;;;;;10.40;60.60;;;;;;5024749;28;19925;-88
2022/12/09 11:36:02;;;;;;;;;;;10.30;60.40;;;;;;5020834;28;20019;-89
2022/12/09 11:38:38;;;;;;;;;;;10.20;60.30;;;;;;5029346;28;19917;-87
2022/12/09 11:41:10;;;;;;;;;;;10.20;60.70;;;;;;5027479;28;20370;-87
2022/12/09 11:43:41;;;;;;;;;;;10.20;61.00;;;;;;5028831;28;20384;-88
2022/12/09 11:46:13;;;;;;;;;;;10.20;61.10;;;;;;5015368;28;19917;-90
2022/12/09 11:48:40;;;;;;;;;;;10.20;61.30;;;;;;5007805;28;20293;-90
2022/12/09 11:51:08;;;;;;;;;;;10.30;61.10;;;;;;5009741;28;19968;-89
2022/12/09 11:53:38;;;;;;;;;;;10.30;61.00;;;;;;5011221;28;20037;-87
2022/12/09 11:56:04;;;;;;;;;;;10.30;60.90;;;;;;5029309;28;20531;-88
2022/12/09 11:58:36;;;;;;;;;;;10.30;61.00;;;;;;5027574;28;20259;-90
2022/12/09 12:01:04;;;;;;;;;;;10.30;60.90;;;;;;5027537;28;19917;-90
2022/12/09 12:03:38;;;;;;;;;;;10.40;60.50;;;;;;5031754;28;19924;-89
2022/12/09 12:06:05;;;;;;;;;;;10.40;60.60;;;;;;5027019;28;19960;-88
2022/12/09 12:08:42;;;;;;;;;;;10.40;60.60;;;;;;5026227;28;19917;-88
2022/12/09 12:11:09;;;;;;;;;;;10.30;60.60;;;;;;5017019;28;19964;-89
2022/12/09 12:13:43;;;;;;;;;;;10.30;60.70;;;;;;5023762;28;19936;-90
2022/12/09 12:16:11;;;;;;;;;;;10.30;60.80;;;;;;5028489;28;19964;-88
2022/12/09 12:18:56;;;;;;;;;;;10.30;60.60;;;;;;5028877;28;19958;-87
2022/12/09 12:21:25;;;;;;;;;;;10.20;60.50;;;;;;5039162;28;19952;-87
2022/12/09 12:24:09;;;;;;;;;;;10.20;60.20;;;;;;5026558;28;20514;-89
2022/12/09 12:26:51;;;;;;;;;;;10.10;59.90;;;;;;5027538;28;19971;-90
2022/12/09 12:29:16;;;;;;;;;;;9.90;60.30;;;;;;5026820;28;19925;-89
2022/12/09 12:31:59;;;;;;;;;;;9.80;59.90;;;;;;5024884;28;19917;-90
2022/12/09 12:34:36;;;;;;;;;;;9.70;59.60;;;;;;5028293;28;19935;-90
2022/12/09 12:37:04;;;;;;;;;;;9.50;60.20;;;;;;5026793;28;19923;-88
2022/12/09 12:39:45;;;;;;;;;;;9.50;59.80;;;;;;5028457;28;19921;-90
2022/12/09 12:42:27;;;;;;;;;;;9.40;60.00;;;;;;5027037;28;20004;-91
2022/12/09 12:47:56;;;;;;;;;;;9.30;60.50;;;;;;5027112;28;19924;-90
2022/12/09 12:50:28;;;;;;;;;;;9.30;60.70;;;;;;5026557;28;19921;-88
2022/12/09 12:53:04;;;;;;;;;;;9.30;61.00;;;;;;5018405;28;19928;-89
2022/12/09 12:55:40;;;;;;;;;;;9.30;60.80;;;;;;5025625;28;19929;-87
2022/12/09 12:58:25;;;;;;;;;;;9.30;60.80;;;;;;5015453;28;19922;-90
2022/12/09 13:01:15;;;;;;;;;;;9.20;60.40;;;;;;5023422;28;20013;-88
2022/12/09 13:04:08;;;;;;;;;;;9.10;60.50;;;;;;5015417;28;19962;-87
2022/12/09 13:06:37;;;;;;;;;;;9.00;60.30;;;;;;5020001;28;20383;-90
2022/12/09 13:09:08;;;;;;;;;;;9.00;60.00;;;;;;5024727;28;20430;-88
2022/12/09 13:11:38;;;;;;;;;;;8.80;59.80;;;;;;5013504;28;19929;-89
2022/12/09 13:14:06;;;;;;;;;;;8.80;59.50;;;;;;5018912;28;19917;-90
2022/12/09 13:16:33;;;;;;;;;;;8.70;59.40;;;;;;5016120;28;19925;-89
2022/12/09 13:19:08;;;;;;;;;;;8.60;59.30;;;;;;5031857;28;19921;-90
2022/12/09 13:21:33;;;;;;;;;;;8.50;59.20;;;;;;5023055;28;19928;-87
2022/12/09 13:24:08;;;;;;;;;;;8.40;59.10;;;;;;5019559;28;20532;-89
2022/12/09 13:27:06;;;;;;;;;;;8.30;59.20;;;;;;5009933;28;19943;-89
2022/12/09 13:29:36;;;;;;;;;;;8.30;59.30;;;;;;4986002;28;19944;-88
2022/12/09 13:32:14;;;;;;;;;;;8.20;59.60;;;;;;5024765;28;20375;-89
2022/12/09 13:34:41;;;;;;;;;;;8.20;59.80;;;;;;5005711;28;20289;-90
2022/12/09 13:37:33;;;;;;;;;;;8.20;60.10;;;;;;5016247;28;19928;-89
2022/12/09 13:39:59;;;;;;;;;;;8.20;60.50;;;;;;5003132;28;19921;-90
2022/12/09 13:45:13;;;;;;;;;;;8.20;60.90;;;;;;5026428;28;19924;-91
2022/12/09 13:47:39;;;;;;;;;;;8.30;60.90;;;;;;5024614;28;19924;-89
2022/12/09 13:50:06;;;;;;;;;;;8.30;61.00;;;;;;5018735;28;19985;-88
2022/12/09 13:52:39;;;;;;;;;;;8.40;61.00;;;;;;5009513;28;19921;-88
2022/12/09 13:55:16;;;;;;;;;;;8.40;61.00;;;;;;5024378;28;19972;-89
2022/12/09 13:57:46;;;;;;;;;;;8.40;60.80;;;;;;5025053;28;19924;-89
2022/12/09 14:00:15;;;;;;;;;;;8.50;60.80;;;;;;5024984;28;19924;-90
2022/12/09 14:02:43;;;;;;;;;;;8.50;60.60;;;;;;5024412;28;19943;-88
2022/12/09 14:05:12;;;;;;;;;;;8.50;60.30;;;;;;5021303;28;19920;-87
2022/12/09 14:07:45;;;;;;;;;;;8.40;59.90;;;;;;5028984;28;19998;-88
2022/12/09 14:10:29;;;;;;;;;;;8.30;59.50;;;;;;5022717;28;19921;-89
2022/12/09 14:12:54;;;;;;;;;;;8.20;59.10;;;;;;5017981;28;19972;-88
2022/12/09 14:15:23;;;;;;;;;;;8.10;58.70;;;;;;5016466;28;20396;-89
2022/12/09 14:17:48;;;;;;;;;;;8.00;58.60;;;;;;5011505;28;19917;-91
2022/12/09 14:20:20;;;;;;;;;;;7.80;58.50;;;;;;5022236;28;19976;-89
2022/12/09 14:23:04;;;;;;;;;;;7.70;58.30;;;;;;5022655;28;19913;-89
2022/12/09 14:25:32;;;;;;;;;;;7.70;58.20;;;;;;5025170;28;19921;-89
2022/12/09 14:28:14;;;;;;;;;;;7.50;58.10;;;;;;5022820;28;19917;-88
2022/12/09 14:30:53;;;;;;;;;;;7.40;58.00;;;;;;5012587;28;19921;-88
2022/12/09 14:33:39;;;;;;;;;;;7.30;58.00;;;;;;5008930;28;19957;-90
2022/12/09 14:36:20;;;;;;;;;;;7.20;58.10;;;;;;5019964;28;19960;-89
2022/12/09 14:39:11;;;;;;;;;;;7.10;58.10;;;;;;5025201;28;19917;-87
2022/12/09 14:41:44;;;;;;;;;;;7.00;57.90;;;;;;5012267;28;20390;-89
2022/12/09 14:44:19;;;;;;;;;;;7.00;57.70;;;;;;5009416;28;20447;-87
2022/12/09 14:46:46;;;;;;;;;;;6.80;57.40;;;;;;5006369;28;19925;-89